SWA2588 KSMF-KLAS
Flight info
| Callsign | SWA2588 |
|---|---|
| Flight time | 0h 58m |
| Altitude | 35000 |
| Route | SCTWN4 SHUFL TQILA COKTL4 |
| Aircraft | B738/M-SDE2E3FGHIRWXY/LB1 |
Departure
| Time | 2026-04-30 20:28 |
|---|---|
| Airport | Sacramento International Airport (KSMF) |
Arrival
| Time | 2026-04-30 21:27 |
|---|---|
| Airport | Harry Reid International Airport (KLAS) |
| Time | Latitude | Longitude | Altitude | Speed | Heading |
|---|---|---|---|---|---|
| 2026-04-30 20:08 | 38.69631 | -121.59302 | 22 ft | 0 kts | 198° |
| 2026-04-30 20:19 | 38.69652 | -121.59294 | 22 ft | 4 kts | 188° |
| 2026-04-30 20:19 | 38.69678 | -121.59294 | 22 ft | 4 kts | 160° |
| 2026-04-30 20:19 | 38.69696 | -121.59311 | 22 ft | 4 kts | 98° |
| 2026-04-30 20:20 | 38.69697 | -121.59322 | 22 ft | 0 kts | 91° |
| 2026-04-30 20:23 | 38.69697 | -121.59309 | 22 ft | 3 kts | 90° |
| 2026-04-30 20:23 | 38.69696 | -121.59259 | 23 ft | 8 kts | 90° |
| 2026-04-30 20:23 | 38.69695 | -121.59168 | 23 ft | 12 kts | 90° |
| 2026-04-30 20:23 | 38.69693 | -121.59042 | 24 ft | 16 kts | 91° |
| 2026-04-30 20:24 | 38.69693 | -121.58885 | 23 ft | 19 kts | 90° |
| 2026-04-30 20:24 | 38.69691 | -121.58702 | 22 ft | 20 kts | 91° |
| 2026-04-30 20:24 | 38.69746 | -121.58602 | 22 ft | 14 kts | 36° |
| 2026-04-30 20:24 | 38.69762 | -121.58486 | 22 ft | 13 kts | 91° |
| 2026-04-30 20:25 | 38.69804 | -121.58284 | 22 ft | 13 kts | 5° |
| 2026-04-30 20:25 | 38.69902 | -121.58281 | 22 ft | 15 kts | 1° |
| 2026-04-30 20:26 | 38.70148 | -121.58277 | 22 ft | 20 kts | 1° |
| 2026-04-30 20:26 | 38.70463 | -121.58272 | 24 ft | 25 kts | 1° |
| 2026-04-30 20:26 | 38.70627 | -121.58270 | 24 ft | 20 kts | 2° |
| 2026-04-30 20:27 | 38.70657 | -121.58012 | 22 ft | 17 kts | 161° |
| 2026-04-30 20:27 | 38.70100 | -121.58015 | 22 ft | 101 kts | 180° |
| 2026-04-30 20:28 | 38.67946 | -121.58066 | 667 ft | 175 kts | 181° |
| 2026-04-30 20:28 | 38.65887 | -121.56415 | 1690 ft | 209 kts | 110° |
| 2026-04-30 20:29 | 38.65161 | -121.52466 | 2221 ft | 247 kts | 107° |
| 2026-04-30 20:30 | 38.63272 | -121.45834 | 3989 ft | 270 kts | 111° |
| 2026-04-30 20:30 | 38.61984 | -121.38726 | 6248 ft | 278 kts | 99° |
| 2026-04-30 20:31 | 38.60923 | -121.31312 | 8774 ft | 288 kts | 100° |
| 2026-04-30 20:32 | 38.59761 | -121.23537 | 10671 ft | 320 kts | 101° |
| 2026-04-30 20:32 | 38.58857 | -121.17586 | 11320 ft | 356 kts | 101° |
| 2026-04-30 20:33 | 38.58377 | -121.14459 | 12031 ft | 360 kts | 101° |
| 2026-04-30 20:33 | 38.57401 | -121.08141 | 13530 ft | 367 kts | 100° |
| 2026-04-30 20:33 | 38.56902 | -121.04916 | 14151 ft | 373 kts | 100° |
| 2026-04-30 20:34 | 38.55882 | -120.98331 | 15454 ft | 382 kts | 99° |
| 2026-04-30 20:34 | 38.54835 | -120.91603 | 16686 ft | 392 kts | 99° |
| 2026-04-30 20:35 | 38.54301 | -120.88171 | 17275 ft | 397 kts | 98° |
| 2026-04-30 20:35 | 38.53758 | -120.84693 | 17856 ft | 401 kts | 98° |
| 2026-04-30 20:35 | 38.52648 | -120.77627 | 18984 ft | 410 kts | 98° |
| 2026-04-30 20:36 | 38.52084 | -120.74043 | 19548 ft | 414 kts | 98° |
| 2026-04-30 20:36 | 38.51513 | -120.70426 | 20094 ft | 417 kts | 98° |
| 2026-04-30 20:36 | 38.50358 | -120.63133 | 21113 ft | 426 kts | 98° |
| 2026-04-30 20:37 | 38.49769 | -120.59416 | 21620 ft | 429 kts | 98° |
| 2026-04-30 20:37 | 38.49172 | -120.55667 | 22100 ft | 432 kts | 98° |
| 2026-04-30 20:37 | 38.48565 | -120.51862 | 22523 ft | 437 kts | 99° |
| 2026-04-30 20:37 | 38.47956 | -120.48045 | 22971 ft | 440 kts | 99° |
| 2026-04-30 20:38 | 38.47341 | -120.44208 | 23415 ft | 443 kts | 99° |
| 2026-04-30 20:38 | 38.46722 | -120.40347 | 23838 ft | 446 kts | 99° |
| 2026-04-30 20:38 | 38.46097 | -120.36455 | 24203 ft | 451 kts | 99° |
| 2026-04-30 20:39 | 38.44826 | -120.28568 | 25047 ft | 456 kts | 99° |
| 2026-04-30 20:39 | 38.44186 | -120.24601 | 25440 ft | 458 kts | 99° |
| 2026-04-30 20:39 | 38.43538 | -120.20606 | 25781 ft | 462 kts | 99° |
| 2026-04-30 20:40 | 38.42206 | -120.12537 | 26483 ft | 469 kts | 99° |
| 2026-04-30 20:40 | 38.41522 | -120.08465 | 26848 ft | 471 kts | 99° |
| 2026-04-30 20:40 | 38.40843 | -120.04426 | 27185 ft | 473 kts | 99° |
| 2026-04-30 20:41 | 38.39447 | -119.96127 | 27823 ft | 479 kts | 99° |
| 2026-04-30 20:41 | 38.38747 | -119.91963 | 28139 ft | 482 kts | 99° |
| 2026-04-30 20:41 | 38.38042 | -119.87779 | 28440 ft | 484 kts | 100° |
| 2026-04-30 20:41 | 38.37333 | -119.83581 | 28674 ft | 487 kts | 100° |
| 2026-04-30 20:42 | 38.36618 | -119.79356 | 29000 ft | 489 kts | 100° |
| 2026-04-30 20:42 | 38.35908 | -119.75173 | 29282 ft | 491 kts | 100° |
| 2026-04-30 20:42 | 38.34455 | -119.66635 | 29845 ft | 495 kts | 100° |
| 2026-04-30 20:43 | 38.33721 | -119.62337 | 30134 ft | 497 kts | 100° |
| 2026-04-30 20:43 | 38.32987 | -119.58043 | 30495 ft | 496 kts | 100° |
| 2026-04-30 20:43 | 38.32253 | -119.53761 | 30876 ft | 495 kts | 100° |
| 2026-04-30 20:44 | 38.30775 | -119.45184 | 31601 ft | 494 kts | 100° |
| 2026-04-30 20:44 | 38.30035 | -119.40902 | 31890 ft | 495 kts | 100° |
| 2026-04-30 20:44 | 38.28556 | -119.32368 | 32515 ft | 494 kts | 101° |
| 2026-04-30 20:45 | 38.27080 | -119.23897 | 33128 ft | 493 kts | 101° |
| 2026-04-30 20:45 | 38.25578 | -119.15295 | 33124 ft | 500 kts | 101° |
| 2026-04-30 20:46 | 38.22578 | -118.98235 | 33120 ft | 491 kts | 101° |
| 2026-04-30 20:47 | 38.20325 | -118.85546 | 33129 ft | 493 kts | 101° |
| 2026-04-30 20:48 | 38.18031 | -118.72765 | 33121 ft | 494 kts | 101° |
| 2026-04-30 20:48 | 38.16502 | -118.64258 | 33120 ft | 494 kts | 101° |
| 2026-04-30 20:49 | 38.14969 | -118.55766 | 33116 ft | 492 kts | 101° |
| 2026-04-30 20:50 | 38.12672 | -118.43093 | 33115 ft | 490 kts | 101° |
| 2026-04-30 20:50 | 38.11141 | -118.34683 | 33124 ft | 488 kts | 101° |
| 2026-04-30 20:51 | 38.08906 | -118.26602 | 33136 ft | 489 kts | 122° |
| 2026-04-30 20:51 | 38.03335 | -118.15762 | 33104 ft | 489 kts | 123° |
| 2026-04-30 20:52 | 37.99665 | -118.08497 | 33097 ft | 489 kts | 122° |
| 2026-04-30 20:53 | 37.94222 | -117.97572 | 33094 ft | 489 kts | 122° |
| 2026-04-30 20:53 | 37.90589 | -117.90294 | 33093 ft | 489 kts | 122° |
| 2026-04-30 20:54 | 37.85731 | -117.80595 | 33089 ft | 490 kts | 122° |
| 2026-04-30 20:55 | 37.79628 | -117.68444 | 33086 ft | 491 kts | 122° |
| 2026-04-30 20:55 | 37.75705 | -117.61394 | 33095 ft | 490 kts | 130° |
| 2026-04-30 20:56 | 37.68954 | -117.51677 | 33095 ft | 491 kts | 131° |
| 2026-04-30 20:57 | 37.62270 | -117.41876 | 33098 ft | 491 kts | 130° |
| 2026-04-30 20:57 | 37.57858 | -117.35301 | 33105 ft | 490 kts | 130° |
| 2026-04-30 20:58 | 37.51270 | -117.25515 | 33099 ft | 489 kts | 130° |
| 2026-04-30 20:58 | 37.46751 | -117.19134 | 33079 ft | 488 kts | 141° |
| 2026-04-30 20:59 | 37.38339 | -117.11990 | 33094 ft | 486 kts | 148° |
| 2026-04-30 21:00 | 37.28125 | -117.03170 | 33078 ft | 487 kts | 146° |
| 2026-04-30 21:01 | 37.19768 | -116.95928 | 33072 ft | 486 kts | 146° |
| 2026-04-30 21:02 | 37.11412 | -116.88709 | 33057 ft | 486 kts | 146° |
| 2026-04-30 21:02 | 37.05841 | -116.83915 | 33049 ft | 485 kts | 146° |
| 2026-04-30 21:02 | 37.03043 | -116.81514 | 32544 ft | 490 kts | 146° |
| 2026-04-30 21:03 | 37.00234 | -116.79104 | 31922 ft | 489 kts | 146° |
| 2026-04-30 21:03 | 36.97427 | -116.76698 | 31283 ft | 488 kts | 146° |
| 2026-04-30 21:03 | 36.94643 | -116.74309 | 30824 ft | 483 kts | 146° |
| 2026-04-30 21:03 | 36.91883 | -116.71942 | 30328 ft | 479 kts | 146° |
| 2026-04-30 21:04 | 36.89149 | -116.69600 | 29843 ft | 475 kts | 146° |
| 2026-04-30 21:04 | 36.86426 | -116.67270 | 29349 ft | 472 kts | 146° |
| 2026-04-30 21:04 | 36.81048 | -116.62674 | 28341 ft | 465 kts | 146° |
| 2026-04-30 21:05 | 36.78388 | -116.60403 | 27850 ft | 462 kts | 146° |
| 2026-04-30 21:05 | 36.75746 | -116.58149 | 27354 ft | 458 kts | 145° |
| 2026-04-30 21:05 | 36.73128 | -116.55917 | 26867 ft | 455 kts | 145° |
| 2026-04-30 21:05 | 36.70520 | -116.53694 | 26369 ft | 452 kts | 145° |
| 2026-04-30 21:06 | 36.67937 | -116.51496 | 25883 ft | 449 kts | 145° |
| 2026-04-30 21:06 | 36.65377 | -116.49297 | 25397 ft | 445 kts | 142° |
| 2026-04-30 21:06 | 36.63114 | -116.46694 | 24914 ft | 441 kts | 130° |
| 2026-04-30 21:06 | 36.61121 | -116.43828 | 24454 ft | 436 kts | 128° |
| 2026-04-30 21:07 | 36.59203 | -116.40978 | 23982 ft | 434 kts | 128° |
| 2026-04-30 21:07 | 36.57241 | -116.38083 | 23520 ft | 430 kts | 129° |
| 2026-04-30 21:07 | 36.55297 | -116.35269 | 23032 ft | 428 kts | 129° |
| 2026-04-30 21:07 | 36.53347 | -116.32487 | 22566 ft | 425 kts | 130° |
| 2026-04-30 21:08 | 36.51427 | -116.29773 | 22110 ft | 422 kts | 130° |
| 2026-04-30 21:08 | 36.49495 | -116.27050 | 21662 ft | 418 kts | 130° |
| 2026-04-30 21:08 | 36.47575 | -116.24349 | 21191 ft | 415 kts | 130° |
| 2026-04-30 21:08 | 36.45684 | -116.21690 | 20983 ft | 405 kts | 130° |
| 2026-04-30 21:09 | 36.43828 | -116.19081 | 20621 ft | 401 kts | 131° |
| 2026-04-30 21:09 | 36.41987 | -116.16500 | 20275 ft | 398 kts | 131° |
| 2026-04-30 21:09 | 36.40153 | -116.13929 | 19925 ft | 397 kts | 131° |
| 2026-04-30 21:09 | 36.38329 | -116.11372 | 19573 ft | 395 kts | 131° |
| 2026-04-30 21:10 | 36.36514 | -116.08829 | 19216 ft | 393 kts | 131° |
| 2026-04-30 21:10 | 36.34709 | -116.06300 | 18885 ft | 390 kts | 131° |
| 2026-04-30 21:10 | 36.32917 | -116.03790 | 18520 ft | 388 kts | 131° |
| 2026-04-30 21:10 | 36.31128 | -116.01285 | 18176 ft | 386 kts | 131° |
| 2026-04-30 21:11 | 36.29371 | -115.98825 | 17836 ft | 381 kts | 132° |
| 2026-04-30 21:11 | 36.27610 | -115.96365 | 17492 ft | 377 kts | 132° |
| 2026-04-30 21:11 | 36.25881 | -115.93955 | 17165 ft | 372 kts | 132° |
| 2026-04-30 21:11 | 36.24207 | -115.91547 | 16832 ft | 367 kts | 129° |
| 2026-04-30 21:12 | 36.22636 | -115.89066 | 16517 ft | 364 kts | 127° |
| 2026-04-30 21:12 | 36.21108 | -115.86598 | 16201 ft | 359 kts | 127° |
| 2026-04-30 21:12 | 36.19594 | -115.84153 | 15876 ft | 355 kts | 127° |
| 2026-04-30 21:12 | 36.18091 | -115.81745 | 15551 ft | 352 kts | 127° |
| 2026-04-30 21:13 | 36.16588 | -115.79375 | 15246 ft | 348 kts | 127° |
| 2026-04-30 21:13 | 36.15102 | -115.77031 | 14956 ft | 344 kts | 128° |
| 2026-04-30 21:13 | 36.13365 | -115.75027 | 14598 ft | 343 kts | 150° |
| 2026-04-30 21:13 | 36.11204 | -115.73867 | 14344 ft | 336 kts | 161° |
| 2026-04-30 21:14 | 36.08987 | -115.72973 | 14044 ft | 333 kts | 163° |
| 2026-04-30 21:14 | 36.06781 | -115.72129 | 13748 ft | 330 kts | 163° |
| 2026-04-30 21:14 | 36.04598 | -115.71286 | 13440 ft | 328 kts | 162° |
| 2026-04-30 21:14 | 36.02466 | -115.70447 | 13157 ft | 325 kts | 162° |
| 2026-04-30 21:15 | 36.00323 | -115.69590 | 12866 ft | 322 kts | 162° |
| 2026-04-30 21:15 | 35.98170 | -115.68720 | 12573 ft | 320 kts | 162° |
| 2026-04-30 21:15 | 35.96093 | -115.67880 | 12289 ft | 317 kts | 162° |
| 2026-04-30 21:15 | 35.94004 | -115.67035 | 12002 ft | 315 kts | 162° |
| 2026-04-30 21:16 | 35.91926 | -115.66192 | 11705 ft | 313 kts | 161° |
| 2026-04-30 21:16 | 35.89873 | -115.65353 | 11450 ft | 309 kts | 161° |
| 2026-04-30 21:16 | 35.87840 | -115.64526 | 11165 ft | 307 kts | 161° |
| 2026-04-30 21:16 | 35.85819 | -115.63704 | 10893 ft | 305 kts | 161° |
| 2026-04-30 21:17 | 35.83795 | -115.62835 | 10613 ft | 303 kts | 154° |
| 2026-04-30 21:17 | 35.82149 | -115.61288 | 10361 ft | 296 kts | 130° |
| 2026-04-30 21:17 | 35.80838 | -115.59357 | 10106 ft | 293 kts | 126° |
| 2026-04-30 21:17 | 35.79584 | -115.57391 | 9832 ft | 291 kts | 126° |
| 2026-04-30 21:18 | 35.78333 | -115.55449 | 9577 ft | 289 kts | 127° |
| 2026-04-30 21:18 | 35.77082 | -115.53533 | 9325 ft | 286 kts | 127° |
| 2026-04-30 21:18 | 35.75923 | -115.51561 | 9036 ft | 281 kts | 111° |
| 2026-04-30 21:18 | 35.75466 | -115.49288 | 8858 ft | 270 kts | 93° |
| 2026-04-30 21:19 | 35.75368 | -115.46991 | 8595 ft | 268 kts | 89° |
| 2026-04-30 21:19 | 35.75333 | -115.44774 | 8365 ft | 264 kts | 89° |
| 2026-04-30 21:19 | 35.75310 | -115.42526 | 8140 ft | 261 kts | 84° |
| 2026-04-30 21:19 | 35.75837 | -115.40454 | 7994 ft | 249 kts | 55° |
| 2026-04-30 21:20 | 35.76923 | -115.38874 | 7961 ft | 236 kts | 41° |
| 2026-04-30 21:20 | 35.78144 | -115.37562 | 7980 ft | 232 kts | 39° |
| 2026-04-30 21:20 | 35.79377 | -115.36273 | 7980 ft | 233 kts | 39° |
| 2026-04-30 21:20 | 35.80610 | -115.34967 | 7976 ft | 234 kts | 40° |
| 2026-04-30 21:21 | 35.81839 | -115.33658 | 7933 ft | 235 kts | 39° |
| 2026-04-30 21:21 | 35.83100 | -115.32307 | 7632 ft | 242 kts | 40° |
| 2026-04-30 21:21 | 35.85637 | -115.29583 | 7071 ft | 241 kts | 37° |
| 2026-04-30 21:22 | 35.87090 | -115.28579 | 6796 ft | 240 kts | 22° |
| 2026-04-30 21:22 | 35.91632 | -115.26186 | 6080 ft | 233 kts | 24° |
| 2026-04-30 21:23 | 35.93095 | -115.25341 | 5727 ft | 231 kts | 25° |
| 2026-04-30 21:23 | 35.94549 | -115.24501 | 5383 ft | 231 kts | 25° |
| 2026-04-30 21:23 | 35.97355 | -115.22888 | 4688 ft | 210 kts | 25° |
| 2026-04-30 21:24 | 35.98647 | -115.22144 | 4391 ft | 199 kts | 25° |
| 2026-04-30 21:24 | 35.99864 | -115.21444 | 4116 ft | 188 kts | 25° |
| 2026-04-30 21:24 | 36.01024 | -115.20778 | 3846 ft | 180 kts | 25° |
| 2026-04-30 21:24 | 36.02123 | -115.20146 | 3605 ft | 167 kts | 25° |
| 2026-04-30 21:25 | 36.04151 | -115.18981 | 3100 ft | 159 kts | 25° |
| 2026-04-30 21:25 | 36.05164 | -115.18403 | 2883 ft | 162 kts | 24° |
| 2026-04-30 21:25 | 36.06191 | -115.17819 | 2598 ft | 161 kts | 26° |
| 2026-04-30 21:26 | 36.08175 | -115.16671 | 2149 ft | 151 kts | 25° |
| 2026-04-30 21:26 | 36.09011 | -115.16193 | 2122 ft | 90 kts | 25° |
| 2026-04-30 21:27 | 36.09340 | -115.15881 | 2107 ft | 10 kts | 114° |
| 2026-04-30 21:27 | 36.09310 | -115.15796 | 2106 ft | 12 kts | 114° |
| 2026-04-30 21:27 | 36.09270 | -115.15690 | 2102 ft | 15 kts | 115° |
| 2026-04-30 21:28 | 36.09109 | -115.15562 | 2098 ft | 16 kts | 202° |
| 2026-04-30 21:28 | 36.09008 | -115.15619 | 2099 ft | 16 kts | 205° |
| 2026-04-30 21:28 | 36.08818 | -115.15728 | 2104 ft | 14 kts | 205° |
| 2026-04-30 21:29 | 36.08729 | -115.15780 | 2105 ft | 14 kts | 205° |
| 2026-04-30 21:29 | 36.08427 | -115.15651 | 2100 ft | 19 kts | 155° |
| 2026-04-30 21:30 | 36.08179 | -115.15504 | 2097 ft | 16 kts | 142° |
| 2026-04-30 21:31 | 36.08205 | -115.15190 | 2096 ft | 9 kts | 45° |
| 2026-04-30 21:31 | 36.08232 | -115.15157 | 2096 ft | 1 kts | 44° |
| 2026-04-30 21:32 | 36.08243 | -115.15144 | 2096 ft | 1 kts | 44° |
| 2026-04-30 21:32 | 36.08244 | -115.15143 | 2096 ft | 0 kts | 44° |